Impacts TAF Board INFO
FOR SITUATIONAL AWARENESS. NOT TO BE USED FOR FLIGHT PLANNING PURPOSES.
IDs:

KSAN - San Diego Intl Arpt, CA, US

Issued at 1720 UTC 17 Jan 2018
Updated at 1758 UTC 17 Jan 2018
Potential Impact None Slight Moderate High
Time1751Z 17/18Z 17/19Z 17/20Z 17/21Z 17/22Z 17/23Z 18/00Z 18/01Z 18/02Z 18/03Z 18/04Z 18/05Z 18/06Z>>
Type OBS PRVL PRVL PRVL PRVL PRVL PRVL PRVL PRVL PRVL PRVL PRVL PRVL PRVL
VIS 10 >6 >6 >6 >6 >6 >6 >6 >6 >6 >6 >6 >6 >6
CIG -- -- -- -- -- -- -- -- -- -- -- -- -- --
Cover SCT SCT SCT SCT SCT SCT SCT SCT SCT SCT SCT SCT SCT SCT
FltCat VFR VFR VFR VFR VFR VFR VFR VFR VFR VFR VFR VFR VFR VFR
WX -- -- -- -- -- -- -- -- VCFG VCFG VCFG VCFG VCFG VCFG
WDir VRB VRB VRB 300 300 300 300 300 VRB VRB VRB VRB VRB VRB
WSpd 0 5 5 9 9 9 9 9 4 4 4 4 4 4
WGst -- -- -- -- -- -- -- -- -- -- -- -- -- --

Raw TAF
KSAN 171720Z 1718/1824 VRB05KT P6SM FEW001 SCT003 SCT250
  FM172000 30009KT P6SM SCT250
  FM180100 VRB04KT P6SM VCFG SCT003 SCT250
  FM182000 30009KT P6SM SCT250


Raw METAR
KSAN 171751Z 00000KT 10SM FEW003 FEW200 SCT250 17/12 A3019 RMK AO2 SLP223 T01720117 10172 20117 50012
KSAN 171651Z 33003KT 10SM R09/1000VP6000FT FEW001 SCT200 SCT250 13/12 A3020 RMK AO2 SLP224 VIS SW-W 1 FG FEW001 T01330122
KSAN 171606Z 30003KT 10SM R09/0500V0600FT SCT001 BKN200 BKN250 12/12 A3018 RMK AO2 VIS S-SW-W 1/2 FG SCT001 T01220117
KSAN 171602Z 31003KT 1/4SM R09/0500V1400FT FG VV003 12/12 A3017 RMK AO2 T01220117
KSAN 171551Z 32003KT 1/4SM R09/3000VP6000FT FG VV001 12/11 A3017 RMK AO2 SLP215 T01170111
KSAN 171542Z 36003KT 1/4SM R09/1200V4500FT FG VV001 12/11 A3017 RMK AO2 T01170111
KSAN 171538Z 34003KT 3/4SM R09/1200V3000FT BR SCT001 BKN003 12/11 A3017 RMK AO2 VIS NE-E 10 T01220106
KSAN 171534Z 32004KT 10SM R09/1200V4000FT FEW001 BKN003 BKN200 BKN250 12/11 A3017 RMK AO2 VIS S-SW-W 1/2 T01220106
KSAN 171451Z 31003KT 10SM FEW003 FEW200 SCT250 12/09 A3016 RMK AO2 SLP211 T01170094 53010

METAR Board
Radar Display
Forecast Discussion

FOR SITUATIONAL AWARENESS. NOT TO BE USED FOR FLIGHT PLANNING PURPOSES.